Paint Lick, Virginia
Current Conditions -  °F | °C
As of 10:15 AM on Saturday 22 Nov 2014 (Local Time) from KJFZ Reporting Station
Clear Clear  
Wind Chill: 48°   Ceiling: Unl
Heat Index: 48°   Visibility: 10mi
Dew Point: 17°   Wind: 0mph
Humidity: 29%   Direction: NA
Pressure: 30.38"   Gusts: NA
Location:  37.0457°N, 81.7316°W
Report Text: KJFZ 221515Z AUTO 00000KT 10SM CLR 09/M08 A3038 RMK AO2 T00911081
Loading
Personal Weather Stations






























Interactive Weather Map New forecast layout! Learn more

10-Day Weather Forecast

Advertisements
Track Severe Weather on mobile